Latest Weather Observations for Christmas Island

IDW60801

Issued at 1:02 am WST Tuesday 9 February 2016 (issued every 30 minutes, with the page automatically refreshed every 10 minutes)

About weather observations | Map of weather stations | Latest weather observations for WA | Other Formats
Station Details ID: 200790 Name: CHRISTMAS ISLAND AERO Lat: -10.45 Lon: 105.69 Height: 261.0 m
Data from the previous 72 hours. | See also: Recent months at Christmas Island
Date/Time
WST
Temp
°C
App
Temp
°C
Dew
Point
Rel
Hum
%
Delta-T
°C
Wind Press
QNH
hPa
Press
MSL
hPa
Rain
since 9 am
mm
Dir
 
Spd
km/h
Gust
km/h
Spd
kts
Gust
kts
09/01:00am 24.9 29.6 23.9 94 0.7 SE 6 9 3 5 1013.0 1011.4 0.2
09/12:30am 24.7 30.1 23.8 95 0.6 SE 2 7 1 4 1013.2 - 0.2
09/12:00am 24.8 29.5 23.9 95 0.6 SE 6 7 3 4 1013.4 - 0.2
 
Date/Time
WST
Temp
°C
App
Temp
°C
Dew
Point
Rel
Hum
%
Delta-T
°C
Wind Press
QNH
hPa
Press
MSL
hPa
Rain
since 9 am
mm
Dir
 
Spd
km/h
Gust
km/h
Spd
kts
Gust
kts
08/11:30pm 25.0 30.1 24.1 95 0.6 SE 4 6 2 3 1013.4 - 0.2
08/11:00pm 25.0 29.8 24.1 95 0.6 SE 6 6 3 3 1013.3 - 0.2
08/10:30pm 25.1 30.2 24.1 94 0.7 SE 4 6 2 3 1013.0 - 0.2
08/10:00pm 25.3 30.4 24.1 93 0.8 SE 4 6 2 3 1013.0 1011.4 0.2
08/09:30pm 25.5 30.4 24.4 94 0.8 SE 6 7 3 4 1012.9 - 0.2
08/09:00pm 25.8 30.8 24.5 92 0.9 SE 6 9 3 5 1012.6 - 0.2
08/08:33pm 25.8 31.5 24.4 92 1.0 SE 2 6 1 3 1012.2 - 0.2
08/08:30pm 25.9 30.8 24.3 91 1.1 SE 6 7 3 4 1012.1 - 0.2
08/08:22pm 26.0 30.9 24.3 90 1.2 SE 6 11 3 6 1011.9 - 0.2
08/08:00pm 26.1 31.3 24.2 89 1.3 SE 4 6 2 3 1011.7 - 0.2
08/07:30pm 26.1 30.9 24.1 89 1.4 SE 6 7 3 4 1011.2 - 0.2
08/07:00pm 26.4 32.0 24.2 88 1.5 E 2 7 1 4 1010.8 1009.2 0.2
08/06:30pm 26.8 31.8 24.5 87 1.6 E 6 7 3 4 1010.5 - 0.2
08/06:00pm 27.0 32.1 24.1 84 2.0 E 4 7 2 4 1010.4 - 0.2
08/05:30pm 27.3 31.8 23.7 81 2.5 E 6 9 3 5 1010.3 - 0.2
08/05:00pm 27.5 32.0 23.9 81 2.5 E 7 11 4 6 1010.3 - 0.2
08/04:56pm 27.5 32.1 23.8 80 2.6 ENE 6 11 3 6 1010.3 - 0.2
08/04:30pm 27.6 32.1 23.9 80 2.6 ENE 7 11 4 6 1010.3 - 0.2
08/04:20pm 27.8 31.9 23.9 79 2.7 E 9 11 5 6 1010.4 - 0.2
08/04:00pm 27.8 32.0 24.1 80 2.6 E 9 11 5 6 1010.6 1009.0 0.2
08/03:30pm 27.7 31.3 23.8 79 2.7 E 11 15 6 8 1010.9 - 0.2
08/03:11pm 27.8 31.5 23.9 79 2.7 E 11 19 6 10 1011.0 - 0.2
08/03:00pm 28.2 31.5 23.9 77 3.0 ENE 13 17 7 9 1011.1 - 0.2
08/02:35pm 28.5 31.8 23.9 76 3.2 E 13 17 7 9 1011.5 - 0.2
08/02:30pm 28.6 31.9 23.9 75 3.3 E 13 20 7 11 1011.5 - 0.2
08/02:00pm 28.7 31.3 22.7 70 4.1 E 13 19 7 10 1011.8 - 0.2
08/01:30pm 28.5 31.3 23.0 72 3.8 ESE 13 19 7 10 1012.3 - 0.2
08/01:27pm 28.5 31.2 23.4 74 3.5 E 15 19 8 10 1012.3 - 0.2
08/01:00pm 28.6 31.7 24.2 77 3.1 E 15 20 8 11 1012.5 1010.8 0.2
08/12:56pm 28.5 31.6 24.2 77 3.0 E 15 20 8 11 1012.4 - 0.2
08/12:30pm 28.8 32.2 24.1 76 3.3 E 13 20 7 11 1012.7 - 0.2
08/12:19pm 27.9 31.4 24.2 80 2.6 E 13 19 7 10 1012.8 - 0.2
08/12:00pm 28.3 32.1 24.1 78 2.9 E 11 17 6 9 1012.9 - 0.2
08/11:35am 28.4 32.2 24.1 77 3.0 ENE 11 17 6 9 1012.9 - 0.2
08/11:30am 28.2 31.6 23.4 75 3.3 E 11 15 6 8 1012.9 - 0.2
08/11:00am 27.8 31.1 23.9 79 2.7 E 13 17 7 9 1012.9 - 0.2
08/10:30am 28.0 31.4 24.1 79 2.7 E 13 17 7 9 1012.9 - 0.0
08/10:00am 28.0 31.4 24.0 79 2.8 E 13 17 7 9 1013.1 1011.5 13.2
08/09:49am 27.5 30.9 24.1 82 2.4 E 13 17 7 9 1013.2 - 13.2
08/09:30am 27.0 30.6 24.4 86 1.8 SE 13 20 7 11 1013.0 - 13.2
08/09:00am 26.2 31.3 24.6 91 1.1 ESE 6 7 3 4 1012.8 - 13.2
08/08:36am 26.2 31.1 24.3 89 1.3 ESE 6 9 3 5 1012.7 - 13.2
08/08:30am 26.2 31.3 24.6 91 1.1 ESE 6 9 3 5 1012.6 - 13.2
08/08:00am 26.0 31.3 25.0 94 0.7 NE 6 7 3 4 1012.2 - 13.2
08/07:30am 24.4 30.1 23.8 96 0.4 CALM 0 0 0 0 1011.7 - 13.2
08/07:26am 24.1 29.8 23.7 98 0.3 CALM 0 0 0 0 1011.7 - 13.2
08/07:12am 24.0 29.6 23.6 98 0.3 CALM 0 0 0 0 1011.6 - 13.2
08/07:00am 24.0 29.6 23.6 98 0.3 CALM 0 0 0 0 1011.6 1010.0 13.2
08/06:53am 24.0 29.6 23.6 98 0.3 CALM 0 0 0 0 1011.5 - 13.2
08/06:34am 24.1 29.8 23.7 98 0.3 CALM 0 0 0 0 1011.3 - 13.2
08/06:30am 24.1 29.8 23.7 98 0.3 CALM 0 0 0 0 1011.3 - 13.2
08/06:00am 24.0 29.6 23.6 98 0.3 CALM 0 0 0 0 1011.2 - 13.2
08/05:30am 24.0 29.6 23.6 98 0.3 CALM 0 0 0 0 1011.1 - 13.2
08/05:00am 23.9 29.3 23.3 96 0.4 CALM 0 0 0 0 1011.0 - 13.2
08/04:30am 23.9 29.3 23.3 96 0.4 CALM 0 0 0 0 1011.0 - 13.2
08/04:16am 24.0 29.5 23.4 96 0.4 CALM 0 0 0 0 1011.2 - 13.2
08/04:00am 24.1 29.7 23.5 96 0.4 CALM 0 0 0 0 1011.4 1009.8 13.0
08/03:54am 24.1 29.8 23.7 98 0.3 CALM 0 0 0 0 1011.5 - 13.0
08/03:30am 24.3 30.0 23.7 96 0.4 CALM 0 0 0 0 1011.9 - 13.0
08/03:06am 24.5 30.2 23.8 96 0.5 CALM 0 0 0 0 1012.1 - 13.0
08/03:00am 24.5 30.3 23.9 96 0.4 CALM 0 0 0 0 1012.1 - 13.0
08/02:30am 24.8 30.7 24.1 96 0.5 CALM 0 0 0 0 1012.6 - 13.0
08/02:20am 24.7 30.5 24.0 96 0.5 CALM 0 0 0 0 1012.7 - 13.0
08/02:00am 25.0 29.9 24.4 96 0.4 SSE 6 13 3 7 1013.1 - 12.2
08/01:41am 24.8 30.8 24.2 96 0.4 CALM 0 0 0 0 1013.2 - 10.2
08/01:30am 24.8 30.8 24.2 96 0.4 CALM 0 0 0 0 1013.2 - 10.0
08/01:18am 24.9 30.9 24.3 96 0.4 CALM 0 0 0 0 1013.2 - 10.0
08/01:00am 24.8 30.8 24.2 96 0.4 CALM 0 0 0 0 1013.5 1011.9 10.0
08/12:30am 24.7 30.6 24.1 96 0.4 CALM 0 0 0 0 1013.6 - 10.0
08/12:00am 24.6 30.4 23.9 96 0.5 CALM 0 0 0 0 1013.6 - 10.0
 
Date/Time
WST
Temp
°C
App
Temp
°C
Dew
Point
Rel
Hum
%
Delta-T
°C
Wind Press
QNH
hPa
Press
MSL
hPa
Rain
since 9 am
mm
Dir
 
Spd
km/h
Gust
km/h
Spd
kts
Gust
kts
07/11:30pm 24.3 30.0 23.7 96 0.4 CALM 0 0 0 0 1013.6 - 10.0
07/11:00pm 24.4 30.1 23.8 96 0.4 CALM 0 0 0 0 1013.5 - 10.0
07/10:30pm 24.6 30.4 23.9 96 0.5 CALM 0 0 0 0 1013.3 - 10.0
07/10:00pm 24.6 30.0 23.9 96 0.5 SSW 2 6 1 3 1013.0 1011.4 10.0
07/09:30pm 24.4 30.1 23.7 96 0.5 CALM 0 0 0 0 1012.6 - 10.0
07/09:00pm 24.6 30.2 23.6 94 0.7 CALM 0 0 0 0 1012.2 - 10.0
07/08:30pm 24.8 30.5 23.8 94 0.7 CALM 0 0 0 0 1011.6 - 10.0
07/08:00pm 25.0 30.1 24.0 94 0.7 SSW 4 6 2 3 1011.2 - 10.0
07/07:30pm 25.4 30.2 24.1 92 0.9 SSW 6 7 3 4 1010.7 - 10.0
07/07:00pm 25.7 30.2 24.0 90 1.2 SSW 7 9 4 5 1010.3 1008.7 10.0
07/06:30pm 25.9 30.6 23.9 89 1.4 S 6 9 3 5 1010.0 - 10.0
07/06:00pm 26.6 31.3 23.9 85 1.9 S 6 11 3 6 1009.8 - 10.0
07/05:51pm 26.3 31.1 24.4 89 1.3 S 7 11 4 6 1009.7 - 10.0
07/05:30pm 26.0 30.0 24.4 91 1.1 ESE 11 15 6 8 1009.7 - 10.0
07/05:00pm 25.9 30.8 24.6 92 0.9 ESE 7 11 4 6 1009.7 - 10.0
07/04:38pm 26.1 31.6 24.7 92 1.0 S 4 11 2 6 1009.8 - 10.0
07/04:32pm 26.2 32.6 24.9 92 0.9 CALM 0 4 0 2 1009.8 - 10.0
07/04:30pm 25.7 31.9 24.6 94 0.8 CALM 0 6 0 3 1009.8 - 10.0
07/04:16pm 25.4 31.0 24.2 93 0.8 SW 2 7 1 4 1010.0 - 9.8
07/04:00pm 24.8 28.7 23.6 93 0.8 WSW 9 13 5 7 1010.1 1008.5 9.8
07/03:30pm 25.0 29.2 24.1 95 0.6 WSW 9 17 5 9 1010.6 - 9.8
07/03:00pm 24.4 27.6 23.7 96 0.5 WNW 13 22 7 12 1011.1 - 9.8
07/02:45pm 24.2 27.3 23.6 96 0.4 WNW 13 20 7 11 1011.3 - 9.8
07/02:30pm 24.3 27.8 23.6 96 0.5 WNW 11 19 6 10 1011.6 - 9.6
07/02:00pm 24.2 27.0 23.6 96 0.4 WNW 15 24 8 13 1012.1 - 6.4
07/01:38pm 24.8 28.5 23.9 95 0.6 WNW 11 20 6 11 1012.1 - 1.6
07/01:30pm 24.9 29.0 23.9 94 0.7 NW 9 19 5 10 1012.2 - 0.2
07/01:00pm 26.2 29.6 24.0 88 1.5 N 13 20 7 11 1012.3 1010.6 0.0
07/12:30pm 27.0 30.6 24.4 86 1.8 N 13 17 7 9 1012.3 - 0.0
07/12:17pm 27.7 31.3 23.8 79 2.7 E 11 19 6 10 1012.3 - 0.0
07/12:13pm 27.6 31.7 24.0 81 2.5 E 9 15 5 8 1012.3 - 0.0
07/12:00pm 27.5 32.5 23.8 80 2.6 SSE 4 9 2 5 1012.3 - 0.0
07/11:55am 27.2 31.5 23.6 81 2.5 SSE 7 11 4 6 1012.3 - 0.0
07/11:53am 27.4 31.7 23.6 80 2.6 SSE 7 11 4 6 1012.3 - 0.0
07/11:41am 27.5 32.0 23.6 79 2.7 SSE 6 9 3 5 1012.3 - 0.0
07/11:30am 27.6 31.6 23.7 79 2.7 SSE 9 15 5 8 1012.3 - 0.0
07/11:00am 27.1 31.7 24.1 84 2.1 S 7 9 4 5 1012.5 - 0.0
07/10:30am 28.6 31.6 22.6 70 4.1 SE 11 17 6 9 1012.2 - 0.0
07/10:00am 29.0 32.3 22.6 68 4.4 E 9 13 5 7 1012.2 1010.5 0.0
07/09:30am 28.6 32.1 22.8 71 4.0 ESE 9 13 5 7 1012.1 - 0.0
07/09:00am 28.3 32.2 22.9 72 3.7 SE 7 13 4 7 1011.7 - 0.0
07/08:30am 27.0 32.4 23.2 80 2.6 CALM 0 0 0 0 1011.5 - 0.0
07/08:00am 25.2 30.8 23.6 91 1.1 CALM 0 0 0 0 1011.2 - 0.0
07/07:30am 23.9 29.1 22.9 94 0.7 CALM 0 0 0 0 1010.9 - 0.0
07/07:00am 23.3 27.6 22.6 96 0.5 SE 4 7 2 4 1010.7 1009.1 0.0
07/06:30am 23.4 27.3 22.5 95 0.6 SE 6 6 3 3 1010.5 - 0.0
07/06:00am 23.6 28.7 22.7 95 0.6 CALM 0 0 0 0 1010.3 - 0.0
07/05:30am 24.0 28.4 22.8 93 0.8 SE 4 6 2 3 1010.2 - 0.0
07/05:00am 24.2 28.4 23.2 94 0.7 SE 6 11 3 6 1010.0 - 0.0
07/04:30am 24.0 28.6 23.1 95 0.6 SE 4 6 2 3 1009.8 - 0.0
07/04:00am 24.4 29.3 23.7 96 0.5 SE 4 7 2 4 1009.7 1008.1 0.0
07/03:30am 24.4 28.8 23.5 95 0.6 SE 6 7 3 4 1010.0 - 0.0
07/03:00am 24.2 28.4 23.2 94 0.7 SE 6 9 3 5 1010.2 - 0.0
07/02:30am 23.7 28.8 22.7 94 0.7 CALM 0 0 0 0 1010.5 - 0.0
07/02:00am 23.4 28.4 22.5 95 0.6 CALM 0 0 0 0 1010.9 - 0.0
07/01:30am 23.4 28.3 22.4 94 0.7 CALM 0 0 0 0 1011.4 - 0.0
07/01:00am 23.5 28.6 22.6 95 0.6 CALM 0 0 0 0 1011.9 1010.3 0.0
07/12:30am 23.6 28.7 22.6 94 0.7 CALM 0 0 0 0 1012.3 - 0.0
07/12:00am 23.7 28.8 22.7 94 0.7 CALM 0 0 0 0 1012.3 - 0.0
 
Date/Time
WST
Temp
°C
App
Temp
°C
Dew
Point
Rel
Hum
%
Delta-T
°C
Wind Press
QNH
hPa
Press
MSL
hPa
Rain
since 9 am
mm
Dir
 
Spd
km/h
Gust
km/h
Spd
kts
Gust
kts
06/11:30pm 23.8 28.9 22.6 93 0.8 CALM 0 0 0 0 1012.3 - 0.0
06/11:00pm 24.0 29.2 22.8 93 0.8 CALM 0 0 0 0 1012.2 - 0.0
06/10:30pm 24.1 29.3 22.8 92 0.9 CALM 0 0 0 0 1011.9 - 0.0
06/10:00pm 24.2 29.3 22.7 91 1.0 CALM 0 0 0 0 1011.6 1010.0 0.0
06/09:30pm 24.0 28.9 22.4 91 1.1 CALM 0 0 0 0 1011.1 - 0.0
06/09:00pm 24.1 28.9 22.2 89 1.3 CALM 0 0 0 0 1010.7 - 0.0
06/08:30pm 24.5 29.4 22.3 87 1.5 CALM 0 0 0 0 1010.5 - 0.0
06/08:00pm 25.2 30.1 22.4 84 1.9 CALM 0 0 0 0 1010.1 - 0.0
06/07:30pm 26.0 30.3 22.0 78 2.7 SE 2 6 1 3 1009.7 - 0.0
06/07:00pm 26.7 30.1 21.7 74 3.4 SE 6 9 3 5 1009.2 1007.5 0.0
06/06:30pm 27.4 30.6 21.6 70 3.9 SE 7 13 4 7 1009.0 - 0.0
06/06:00pm 27.5 30.7 21.6 70 4.0 ESE 7 13 4 7 1008.7 - 0.0
06/05:30pm 27.6 29.7 21.0 67 4.4 SE 11 15 6 8 1008.5 - 0.0
06/05:00pm 27.5 30.6 22.1 72 3.7 SE 9 13 5 7 1008.7 - 0.0
06/04:30pm 27.4 30.3 22.4 74 3.4 SE 11 15 6 8 1008.8 - 0.0
06/04:00pm 27.5 30.0 22.5 74 3.4 ESE 13 17 7 9 1009.0 1007.3 0.0
06/03:30pm 27.6 30.9 22.5 74 3.5 ESE 9 15 5 8 1009.2 - 0.0
06/03:00pm 27.5 30.0 22.4 73 3.5 ESE 13 19 7 10 1009.5 - 0.0
06/02:30pm 27.5 30.2 22.8 75 3.2 E 13 19 7 10 1009.6 - 0.0
06/02:22pm 27.5 29.8 22.8 75 3.2 ESE 15 20 8 11 1009.6 - 0.0
06/02:00pm 27.7 30.0 22.7 74 3.4 E 15 20 8 11 1009.9 - 0.0
06/01:30pm 27.6 30.5 23.1 76 3.1 ESE 13 19 7 10 1010.1 - 0.0
06/01:00pm 27.5 30.0 23.1 77 3.0 ESE 15 19 8 10 1010.5 1008.9 0.0
06/12:52pm 27.8 30.9 23.5 77 3.0 E 13 19 7 10 1010.6 - 0.0
06/12:30pm 27.3 29.7 22.9 77 3.0 E 15 20 8 11 1010.9 - 0.0
06/12:00pm 28.0 30.5 22.4 71 3.8 E 13 20 7 11 1011.2 - 0.0
06/11:30am 28.5 31.0 22.4 69 4.2 ESE 13 19 7 10 1011.5 - 0.0
06/11:00am 28.3 30.3 21.5 66 4.6 ESE 13 17 7 9 1011.6 - 0.0
06/10:30am 28.0 30.3 22.0 70 4.1 ESE 13 20 7 11 1011.8 - 0.0
06/10:00am 26.9 29.2 21.4 72 3.7 ESE 11 13 6 7 1012.1 1010.4 0.2
06/09:30am 26.6 29.2 21.9 75 3.2 SE 11 17 6 9 1012.1 - 0.2
06/09:00am 26.4 29.4 22.0 77 3.0 SE 9 13 5 7 1011.9 - 0.2
06/08:30am 25.7 29.3 22.3 81 2.3 SSE 7 11 4 6 1011.6 - 0.2
06/08:00am 25.0 28.6 22.0 83 2.0 SSE 6 11 3 6 1011.1 - 0.2
06/07:30am 24.6 27.9 21.8 84 1.9 SSE 7 11 4 6 1010.8 - 0.2
06/07:00am 24.1 27.3 21.7 86 1.6 SSE 7 9 4 5 1010.4 1008.8 0.2
06/06:30am 24.0 27.5 22.1 89 1.3 SSE 7 11 4 6 1010.0 - 0.2
06/06:00am 24.2 28.0 22.4 90 1.2 SSE 6 7 3 4 1009.9 - 0.2
06/05:30am 24.3 28.0 22.2 88 1.4 S 6 9 3 5 1009.6 - 0.0
06/05:00am 24.2 28.0 22.4 90 1.2 SSW 6 9 3 5 1009.5 - 0.0
06/04:30am 24.3 28.9 22.5 90 1.2 SSW 2 7 1 4 1009.8 - 0.0
06/04:00am 24.3 28.5 22.4 89 1.3 SSW 4 6 2 3 1010.0 1008.4 0.0
06/03:30am 24.0 28.1 22.2 90 1.2 SSW 4 6 2 3 1009.9 - 0.0
06/03:00am 24.0 28.2 22.4 91 1.1 SSW 4 7 2 4 1010.2 - 0.0
06/02:30am 24.0 27.7 22.5 91 1.0 SSW 7 9 4 5 1010.7 - 0.0

Other Formats:

Comma delimited format used in spreadsheet applications
http://www.bom.gov.au/fwo/IDW60801/IDW60801.96995.axf

JavaScript Object Notation format (JSON) in row-major order
http://www.bom.gov.au/fwo/IDW60801/IDW60801.96995.json